createdAt,value
2023-05-09T00:00:26.543Z,101151.00
2023-05-09T00:03:30.083Z,101143.00
2023-05-09T00:06:33.610Z,101147.81
2023-05-09T00:09:36.176Z,101147.53
2023-05-09T00:12:38.817Z,101146.84
2023-05-09T00:15:41.366Z,101144.38
2023-05-09T00:18:43.914Z,101146.38
2023-05-09T00:21:46.781Z,101139.09
2023-05-09T00:24:49.801Z,101137.09
2023-05-09T00:27:52.276Z,101135.94
2023-05-09T00:30:54.837Z,101125.97
2023-05-09T00:33:57.386Z,101129.78
2023-05-09T00:37:00.039Z,101128.94
2023-05-09T00:40:03.670Z,101115.31
2023-05-09T00:43:06.244Z,101122.44
2023-05-09T00:46:08.790Z,101123.28
2023-05-09T00:49:12.497Z,101122.59
2023-05-09T00:52:15.355Z,101120.09
2023-05-09T00:55:18.915Z,101122.13
2023-05-09T00:58:21.672Z,101115.59
2023-05-09T01:01:24.353Z,101125.91
2023-05-09T01:04:27.046Z,101117.13
2023-05-09T01:07:46.132Z,101125.28
2023-05-09T01:11:01.218Z,101122.41
2023-05-09T01:14:19.060Z,101118.41
2023-05-09T01:17:24.233Z,101125.38
2023-05-09T01:20:34.253Z,101122.34
2023-05-09T01:23:51.604Z,101123.00
2023-05-09T01:27:22.394Z,101127.84
2023-05-09T01:30:26.861Z,101114.69
2023-05-09T01:33:33.858Z,101122.34
2023-05-09T01:36:39.083Z,101117.03
2023-05-09T01:39:47.614Z,101119.00
2023-05-09T01:42:55.123Z,101117.34
2023-05-09T01:45:59.608Z,101103.41
2023-05-09T01:49:03.667Z,101109.34
2023-05-09T01:52:09.970Z,101106.88
2023-05-09T01:55:13.474Z,101105.00
2023-05-09T01:58:18.313Z,101108.31
2023-05-09T02:01:22.027Z,101108.84
2023-05-09T02:04:25.633Z,101109.00
2023-05-09T02:07:29.846Z,101107.34
2023-05-09T02:10:33.164Z,101096.06
2023-05-09T02:13:35.992Z,101104.53
2023-05-09T02:16:39.622Z,101099.03
2023-05-09T02:19:43.070Z,101093.88
2023-05-09T02:22:46.874Z,101099.19
2023-05-09T02:25:50.740Z,101095.81
2023-05-09T02:28:54.252Z,101100.09
2023-05-09T02:31:59.962Z,101092.31
2023-05-09T02:35:04.152Z,101094.28
2023-05-09T02:38:07.225Z,101097.97
2023-05-09T02:41:14.610Z,101098.94
2023-05-09T02:44:17.253Z,101097.25
2023-05-09T02:47:20.496Z,101088.44
2023-05-09T02:50:23.024Z,101082.59
2023-05-09T02:53:25.787Z,101092.63
2023-05-09T02:56:28.395Z,101093.38
2023-05-09T02:59:30.925Z,101092.19
2023-05-09T03:02:37.941Z,101088.19
2023-05-09T03:05:42.897Z,101091.16
2023-05-09T03:08:45.495Z,101091.28
2023-05-09T03:11:48.466Z,101091.81
2023-05-09T03:14:50.963Z,101093.19
2023-05-09T03:17:53.602Z,101090.66
2023-05-09T03:20:57.809Z,101090.97
2023-05-09T03:24:01.244Z,101085.69
2023-05-09T03:27:03.878Z,101085.97
2023-05-09T03:30:07.787Z,101092.88
2023-05-09T03:33:10.877Z,101080.94
2023-05-09T03:36:14.361Z,101087.28
2023-05-09T03:39:18.817Z,101097.31
2023-05-09T03:42:23.863Z,101096.50
2023-05-09T03:45:29.428Z,101092.75
2023-05-09T03:48:32.683Z,101088.44
2023-05-09T03:51:35.324Z,101098.91
2023-05-09T03:54:39.763Z,101096.94
2023-05-09T03:57:42.341Z,101099.94
2023-05-09T04:00:45.405Z,101110.44
2023-05-09T04:03:55.092Z,101100.88
2023-05-09T04:06:57.757Z,101100.75
2023-05-09T04:10:01.161Z,101104.06
2023-05-09T04:13:03.890Z,101096.78
2023-05-09T04:16:07.155Z,101095.13
2023-05-09T04:19:10.638Z,101101.94
2023-05-09T04:22:14.204Z,101096.63
2023-05-09T04:25:17.289Z,101098.81
2023-05-09T04:28:21.516Z,101101.78
2023-05-09T04:31:24.850Z,101099.97
2023-05-09T04:34:29.754Z,101098.19
2023-05-09T04:37:36.238Z,101099.84
2023-05-09T04:40:39.235Z,101101.16
2023-05-09T04:43:42.580Z,101098.84
2023-05-09T04:46:45.295Z,101104.97
2023-05-09T04:49:47.873Z,101105.66
2023-05-09T04:52:50.427Z,101107.81
2023-05-09T04:55:53.419Z,101106.44
2023-05-09T04:58:56.385Z,101107.91
2023-05-09T05:02:00.175Z,101111.75
2023-05-09T05:05:17.918Z,101112.38
2023-05-09T05:08:20.790Z,101106.72
2023-05-09T05:11:24.421Z,101104.56
2023-05-09T05:14:27.087Z,101109.19
2023-05-09T05:17:31.664Z,101110.81
2023-05-09T05:20:36.484Z,101105.75
2023-05-09T05:23:39.113Z,101114.34
2023-05-09T05:26:42.187Z,101111.69
2023-05-09T05:29:44.790Z,101108.59
2023-05-09T05:32:47.622Z,101101.66
2023-05-09T05:35:53.626Z,101106.94
2023-05-09T05:38:57.192Z,101101.34
2023-05-09T05:42:01.150Z,101100.38
2023-05-09T05:45:04.779Z,101103.13
2023-05-09T05:48:09.677Z,101097.72
2023-05-09T05:51:13.128Z,101099.66
2023-05-09T05:54:17.737Z,101096.91
2023-05-09T05:57:20.895Z,101100.59
2023-05-09T06:00:23.726Z,101106.03
2023-05-09T06:03:33.882Z,101104.69
2023-05-09T06:06:40.715Z,101096.84
2023-05-09T06:09:43.214Z,101095.03
2023-05-09T06:12:46.282Z,101098.38
2023-05-09T06:15:49.006Z,101100.22
2023-05-09T06:18:54.127Z,101100.03
2023-05-09T06:21:58.696Z,101111.81
2023-05-09T06:25:01.342Z,101105.31
2023-05-09T06:28:04.122Z,101107.38
2023-05-09T06:31:06.753Z,101094.03
2023-05-09T06:34:09.812Z,101104.75
2023-05-09T06:37:14.730Z,101097.84
2023-05-09T06:40:17.779Z,101093.69
2023-05-09T06:43:20.334Z,101098.72
2023-05-09T06:46:23.013Z,101092.38
2023-05-09T06:49:25.568Z,101098.69
2023-05-09T06:52:28.068Z,101094.38
2023-05-09T06:55:30.863Z,101098.81
2023-05-09T06:58:33.551Z,101083.63
2023-05-09T07:01:36.315Z,101080.81
2023-05-09T07:04:39.004Z,101071.56
2023-05-09T07:07:41.588Z,101067.69
2023-05-09T07:10:44.467Z,101064.84
2023-05-09T07:13:46.952Z,101065.38
2023-05-09T07:16:49.504Z,101063.75
2023-05-09T07:19:52.042Z,101061.47
2023-05-09T07:22:54.633Z,101057.34
2023-05-09T07:26:01.529Z,101056.13
2023-05-09T07:29:04.163Z,101046.59
2023-05-09T07:32:06.863Z,101042.47
2023-05-09T07:35:09.520Z,101042.88
2023-05-09T07:38:12.208Z,101047.63
2023-05-09T07:41:14.774Z,101038.28
2023-05-09T07:44:17.275Z,101028.81
2023-05-09T07:47:20.917Z,101031.44
2023-05-09T07:50:23.534Z,101027.31
2023-05-09T07:53:26.539Z,101028.09
2023-05-09T07:56:29.122Z,101026.22
2023-05-09T07:59:31.596Z,101018.09
2023-05-09T08:02:34.245Z,101016.53
2023-05-09T08:05:36.848Z,101014.91
2023-05-09T08:08:41.840Z,100996.19
2023-05-09T08:11:45.120Z,101003.19
2023-05-09T08:14:47.789Z,101000.13
2023-05-09T08:17:50.797Z,101003.91
2023-05-09T08:20:53.409Z,101006.09
2023-05-09T08:23:56.029Z,101003.66
2023-05-09T08:26:58.652Z,101002.19
2023-05-09T08:30:01.704Z,100998.47
2023-05-09T08:33:04.442Z,101003.81
2023-05-09T08:36:07.361Z,100998.03
2023-05-09T08:39:09.942Z,101005.59
2023-05-09T08:42:15.993Z,101006.44
2023-05-09T08:45:25.743Z,100995.09
2023-05-09T08:48:28.861Z,100997.47
2023-05-09T08:51:32.286Z,100983.00
2023-05-09T08:54:35.574Z,100987.28
2023-05-09T08:57:38.518Z,100984.34
2023-05-09T09:00:42.024Z,100984.66
2023-05-09T09:03:47.808Z,100982.56
2023-05-09T09:06:52.026Z,100982.25
2023-05-09T09:09:55.904Z,100976.69
2023-05-09T09:13:00.921Z,100969.25
2023-05-09T09:16:04.203Z,100969.63
2023-05-09T09:19:12.782Z,100968.59
2023-05-09T09:22:18.778Z,100952.41
2023-05-09T09:25:21.309Z,100959.19
2023-05-09T09:28:23.932Z,100958.69
2023-05-09T09:31:31.609Z,100962.19
2023-05-09T09:34:34.446Z,100967.00
2023-05-09T09:37:45.324Z,100975.34
2023-05-09T09:40:56.037Z,100958.50
2023-05-09T09:43:58.909Z,100970.47
2023-05-09T09:47:01.595Z,100969.53
2023-05-09T09:50:14.695Z,100967.63
2023-05-09T09:53:20.568Z,100963.50
2023-05-09T09:56:39.146Z,100969.06
2023-05-09T09:59:42.677Z,100951.75
2023-05-09T10:02:57.863Z,100959.28
2023-05-09T10:06:03.737Z,100948.50
2023-05-09T10:09:07.468Z,100939.31
2023-05-09T10:12:10.041Z,100926.00
2023-05-09T10:15:17.390Z,100920.16
2023-05-09T10:18:25.074Z,100932.00
2023-05-09T10:21:28.598Z,100934.31
2023-05-09T10:24:35.319Z,100935.50
2023-05-09T10:27:39.246Z,100931.25
2023-05-09T10:31:08.630Z,100924.75
2023-05-09T10:34:13.188Z,100929.47
2023-05-09T10:37:17.389Z,100925.34
2023-05-09T10:40:20.674Z,100925.03
2023-05-09T10:43:25.166Z,100924.03
2023-05-09T10:46:28.520Z,100916.13
2023-05-09T10:49:31.944Z,100918.69
2023-05-09T10:52:34.741Z,100918.06
2023-05-09T10:55:54.804Z,100916.03
2023-05-09T10:58:57.948Z,100907.72
2023-05-09T11:02:03.003Z,100909.09
2023-05-09T11:05:20.233Z,100918.53
2023-05-09T11:08:29.495Z,100917.78
2023-05-09T11:11:32.045Z,100912.59
2023-05-09T11:14:41.563Z,100913.38
2023-05-09T11:17:44.203Z,100907.38
2023-05-09T11:20:49.455Z,100895.75
2023-05-09T11:23:55.021Z,100908.00
2023-05-09T11:27:03.141Z,100894.38
2023-05-09T11:30:08.362Z,100894.09
2023-05-09T11:33:30.434Z,100891.59
2023-05-09T11:36:33.933Z,100888.22
2023-05-09T11:39:56.364Z,100878.50
2023-05-09T11:43:00.684Z,100876.88
2023-05-09T11:46:04.186Z,100858.06
2023-05-09T11:49:09.572Z,100868.88
2023-05-09T11:52:13.931Z,100875.31
2023-05-09T11:55:19.425Z,100862.00
2023-05-09T11:58:22.358Z,100856.09
2023-05-09T12:01:25.142Z,100864.59
2023-05-09T12:04:30.245Z,100861.78
2023-05-09T12:07:32.799Z,100856.78
2023-05-09T12:10:39.648Z,100849.84
2023-05-09T12:13:52.770Z,100848.56
2023-05-09T12:16:55.338Z,100839.06
2023-05-09T12:20:04.019Z,100842.03
2023-05-09T12:23:07.053Z,100847.13
2023-05-09T12:26:09.958Z,100849.56
2023-05-09T12:29:14.384Z,100836.56
2023-05-09T12:32:18.207Z,100839.94
2023-05-09T12:35:23.496Z,100833.50
2023-05-09T12:38:26.178Z,100833.38
2023-05-09T12:41:39.507Z,100829.75
2023-05-09T12:44:49.738Z,100825.34
2023-05-09T12:47:53.265Z,100823.44
2023-05-09T12:50:55.845Z,100817.25
2023-05-09T12:54:04.552Z,100817.19
2023-05-09T12:57:21.589Z,100808.41
2023-05-09T13:00:24.389Z,100806.28
2023-05-09T13:03:30.687Z,100796.44
2023-05-09T13:06:34.836Z,100794.25
2023-05-09T13:09:54.865Z,100790.41
2023-05-09T13:12:57.521Z,100781.72
2023-05-09T13:16:00.141Z,100779.03
2023-05-09T13:19:02.813Z,100781.00
2023-05-09T13:22:05.537Z,100778.16
2023-05-09T13:25:08.367Z,100785.81
2023-05-09T13:28:11.075Z,100787.47
2023-05-09T13:31:13.624Z,100780.59
2023-05-09T13:34:16.103Z,100774.00
2023-05-09T13:37:18.814Z,100774.28
2023-05-09T13:40:21.370Z,100766.50
2023-05-09T13:43:23.992Z,100766.53
2023-05-09T13:46:26.651Z,100774.69
2023-05-09T13:49:29.198Z,100774.94
2023-05-09T13:52:31.669Z,100751.38
2023-05-09T13:55:35.223Z,100745.25
2023-05-09T13:58:37.861Z,100744.75
2023-05-09T14:01:41.129Z,100747.59
2023-05-09T14:04:44.427Z,100744.94
2023-05-09T14:07:47.589Z,100736.91
2023-05-09T14:10:50.172Z,100723.88
2023-05-09T14:13:52.932Z,100720.63
2023-05-09T14:16:55.367Z,100717.78
2023-05-09T14:19:57.903Z,100723.25
2023-05-09T14:23:00.823Z,100725.75
2023-05-09T14:26:03.316Z,100726.56
2023-05-09T14:29:06.504Z,100722.25
2023-05-09T14:32:12.789Z,100711.09
2023-05-09T14:35:15.280Z,100718.47
2023-05-09T14:38:18.068Z,100710.13
2023-05-09T14:41:21.483Z,100705.06
2023-05-09T14:44:25.214Z,100707.13
2023-05-09T14:47:27.960Z,100712.72
2023-05-09T14:50:30.728Z,100696.88
2023-05-09T14:53:35.556Z,100699.03
2023-05-09T14:56:38.038Z,100690.25
2023-05-09T14:59:40.551Z,100698.19
2023-05-09T15:02:43.220Z,100689.00
2023-05-09T15:05:45.687Z,100692.25
2023-05-09T15:08:48.143Z,100695.06
2023-05-09T15:11:50.706Z,100696.13
2023-05-09T15:14:54.549Z,100691.00
2023-05-09T15:17:57.804Z,100689.94
2023-05-09T15:21:00.724Z,100680.34
2023-05-09T15:24:03.744Z,100677.63
2023-05-09T15:27:06.236Z,100682.53
2023-05-09T15:30:10.169Z,100673.13
2023-05-09T15:33:13.347Z,100656.25
2023-05-09T15:36:16.004Z,100669.78
2023-05-09T15:39:18.516Z,100651.81
2023-05-09T15:42:21.039Z,100666.66
2023-05-09T15:45:23.611Z,100663.28
2023-05-09T15:48:26.081Z,100657.69
2023-05-09T15:51:30.172Z,100653.91
2023-05-09T15:54:33.952Z,100657.03
2023-05-09T15:57:36.670Z,100646.63
2023-05-09T16:00:39.824Z,100653.19
2023-05-09T16:03:43.173Z,100649.00
2023-05-09T16:06:45.837Z,100638.38
2023-05-09T16:09:48.312Z,100638.44
2023-05-09T16:12:50.786Z,100633.25
2023-05-09T16:15:53.994Z,100630.69
2023-05-09T16:18:57.091Z,100633.50
2023-05-09T16:21:59.531Z,100642.66
2023-05-09T16:25:02.062Z,100643.44
2023-05-09T16:28:05.031Z,100641.97
2023-05-09T16:31:08.555Z,100637.34
2023-05-09T16:34:11.125Z,100636.47
2023-05-09T16:37:16.132Z,100630.66
2023-05-09T16:40:19.640Z,100623.91
2023-05-09T16:43:22.236Z,100620.38
2023-05-09T16:46:24.827Z,100627.75
2023-05-09T16:49:27.625Z,100614.97
2023-05-09T16:52:30.700Z,100613.94
2023-05-09T16:55:33.229Z,100608.44
2023-05-09T16:58:36.723Z,100615.00
2023-05-09T17:01:39.564Z,100609.50
2023-05-09T17:04:42.398Z,100611.91
2023-05-09T17:07:45.254Z,100607.75
2023-05-09T17:10:47.744Z,100606.22
2023-05-09T17:13:50.307Z,100615.78
2023-05-09T17:16:52.998Z,100613.66
2023-05-09T17:19:55.965Z,100618.09
2023-05-09T17:22:58.450Z,100612.94
2023-05-09T17:26:00.898Z,100611.41
2023-05-09T17:29:03.846Z,100610.31
2023-05-09T17:32:06.812Z,100614.34
2023-05-09T17:35:10.096Z,100606.97
2023-05-09T17:38:12.519Z,100611.66
2023-05-09T17:41:15.119Z,100612.44
2023-05-09T17:44:17.540Z,100612.09
2023-05-09T17:47:20.086Z,100606.63
2023-05-09T17:50:22.907Z,100606.22
2023-05-09T17:53:25.605Z,100602.03
2023-05-09T17:56:28.208Z,100604.31
2023-05-09T17:59:30.704Z,100604.81
2023-05-09T18:02:33.603Z,100604.13
2023-05-09T18:05:39.134Z,100613.50
2023-05-09T18:08:42.014Z,100616.91
2023-05-09T18:11:44.679Z,100606.94
2023-05-09T18:14:48.004Z,100604.69
2023-05-09T18:17:50.580Z,100605.34
2023-05-09T18:20:53.444Z,100615.75
2023-05-09T18:23:55.984Z,100620.97
2023-05-09T18:26:58.661Z,100605.19
2023-05-09T18:30:01.355Z,100623.78
2023-05-09T18:33:04.024Z,100614.16
2023-05-09T18:36:09.122Z,100625.00
2023-05-09T18:39:12.455Z,100629.88
2023-05-09T18:42:16.284Z,100622.47
2023-05-09T18:45:19.123Z,100622.19
2023-05-09T18:48:21.756Z,100618.16
2023-05-09T18:51:25.310Z,100625.94
2023-05-09T18:54:27.813Z,100620.03
2023-05-09T18:57:30.405Z,100625.41
2023-05-09T19:00:34.168Z,100635.03
2023-05-09T19:03:43.625Z,100642.63
2023-05-09T19:06:47.904Z,100642.28
2023-05-09T19:09:50.538Z,100638.59
2023-05-09T19:12:53.329Z,100638.50
2023-05-09T19:15:56.304Z,100644.59
2023-05-09T19:18:59.458Z,100650.22
2023-05-09T19:22:02.340Z,100645.38
2023-05-09T19:25:05.246Z,100646.91
2023-05-09T19:28:07.802Z,100645.47
2023-05-09T19:31:10.689Z,100636.59
2023-05-09T19:34:13.694Z,100645.69
2023-05-09T19:37:16.562Z,100647.53
2023-05-09T19:40:19.532Z,100637.06
2023-05-09T19:43:22.206Z,100643.91
2023-05-09T19:46:25.235Z,100646.81
2023-05-09T19:49:28.231Z,100640.84
2023-05-09T19:52:31.837Z,100645.84
2023-05-09T19:55:34.778Z,100643.59
2023-05-09T19:58:37.564Z,100640.34
2023-05-09T20:01:40.058Z,100649.44
2023-05-09T20:04:49.635Z,100638.72
2023-05-09T20:07:52.203Z,100631.53
2023-05-09T20:10:54.770Z,100632.00
2023-05-09T20:13:57.709Z,100631.81
2023-05-09T20:17:00.215Z,100633.09
2023-05-09T20:20:04.304Z,100629.97
2023-05-09T20:23:07.204Z,100634.34
2023-05-09T20:26:10.187Z,100643.66
2023-05-09T20:29:12.996Z,100632.50
2023-05-09T20:32:15.586Z,100634.38
2023-05-09T20:35:18.556Z,100632.94
2023-05-09T20:38:21.602Z,100633.34
2023-05-09T20:41:24.134Z,100632.13
2023-05-09T20:44:26.815Z,100622.66
2023-05-09T20:47:29.661Z,100623.25
2023-05-09T20:50:32.482Z,100626.34
2023-05-09T20:53:35.113Z,100621.41
2023-05-09T20:56:37.607Z,100620.94
2023-05-09T20:59:40.248Z,100622.19
2023-05-09T21:02:42.893Z,100619.72
2023-05-09T21:05:45.429Z,100613.09
2023-05-09T21:08:47.902Z,100616.41
2023-05-09T21:11:50.502Z,100611.03
2023-05-09T21:14:53.063Z,100603.00
2023-05-09T21:17:55.696Z,100608.34
2023-05-09T21:21:02.809Z,100610.59
2023-05-09T21:24:09.114Z,100605.25
2023-05-09T21:27:11.756Z,100601.97
2023-05-09T21:30:14.986Z,100599.72
2023-05-09T21:33:18.023Z,100597.88
2023-05-09T21:36:20.570Z,100599.72
2023-05-09T21:39:23.118Z,100593.34
2023-05-09T21:42:25.686Z,100592.97
2023-05-09T21:45:28.536Z,100594.19
2023-05-09T21:48:31.036Z,100590.28
2023-05-09T21:51:34.306Z,100590.28
2023-05-09T21:54:36.751Z,100590.25
2023-05-09T21:57:39.259Z,100595.81
2023-05-09T22:00:42.867Z,100600.91
2023-05-09T22:03:46.108Z,100594.25
2023-05-09T22:06:48.785Z,100583.50
2023-05-09T22:09:51.823Z,100598.16
2023-05-09T22:12:54.292Z,100594.03
2023-05-09T22:15:56.888Z,100592.97
2023-05-09T22:18:59.470Z,100597.91
2023-05-09T22:22:02.043Z,100591.78
2023-05-09T22:25:05.374Z,100593.06
2023-05-09T22:28:07.891Z,100584.81
2023-05-09T22:31:10.619Z,100587.09
2023-05-09T22:34:13.061Z,100589.97
2023-05-09T22:37:15.629Z,100585.66
2023-05-09T22:40:21.521Z,100584.81
2023-05-09T22:43:25.385Z,100584.81
2023-05-09T22:46:31.322Z,100588.97
2023-05-09T22:49:34.011Z,100585.03
2023-05-09T22:52:36.609Z,100583.19
2023-05-09T22:55:39.228Z,100585.03
2023-05-09T22:58:41.730Z,100570.00
2023-05-09T23:01:44.425Z,100577.00
2023-05-09T23:04:48.202Z,100569.16
2023-05-09T23:07:51.960Z,100573.50
2023-05-09T23:10:54.425Z,100575.16
2023-05-09T23:13:57.029Z,100571.03
2023-05-09T23:16:59.454Z,100569.56
2023-05-09T23:20:03.883Z,100569.75
2023-05-09T23:23:06.539Z,100566.41
2023-05-09T23:26:10.221Z,100570.72
2023-05-09T23:29:12.717Z,100564.53
2023-05-09T23:32:15.272Z,100568.03
2023-05-09T23:35:17.928Z,100561.59
2023-05-09T23:38:20.483Z,100561.34
2023-05-09T23:41:23.032Z,100569.38
2023-05-09T23:44:25.748Z,100564.41
2023-05-09T23:47:28.317Z,100561.09
2023-05-09T23:50:30.883Z,100551.84
2023-05-09T23:53:35.184Z,100551.63
2023-05-09T23:56:37.872Z,100549.59
2023-05-09T23:59:42.174Z,100550.00
